Bookmark and Share
Track history (hours):
 

MSC Suez

Last reported at 2014-Apr-18 17:31 UTC. Time now 2014-Apr-18 18:15 UTC.
Position N 36°02' W 004°57'.

Length 237 m; draft 8 m.

Type: Ship (hazmat cat D). MMSI: 355289000.

NotesDate/timePositionNaut miles runAvg speedWind from/ knotsBaromVisibWave heightAir tempDewpointWater temp
2014-Apr-18 17:31N 36°02' W 004°57'1414.8
2014-Apr-18 16:33N 36°00' W 005°14'1814.9
2014-Apr-18 15:19N 35°55' W 005°36'1012.5
2014-Apr-18 14:33N 35°53' W 005°48'1313.3
2014-Apr-18 13:34N 35°53' W 006°04'  
2014-Apr-13 02:34N 13°52' W 017°34'2315.4
2014-Apr-13 01:04N 13°30' W 017°33'815.5
2014-Apr-13 00:33N 13°21' W 017°32'1615.6
2014-Apr-12 23:33N 13°06' W 017°32'1615.7
2014-Apr-12 22:32N 12°50' W 017°31'1515.6
2014-Apr-12 21:33N 12°34' W 017°31'1612.8
2014-Apr-12 20:16N 12°18' W 017°29'1413.0
2014-Apr-12 19:13N 12°05' W 017°28'1014.4
2014-Apr-12 18:32N 11°55' W 017°28'2 1.6
2014-Apr-12 17:27N 11°53' W 017°28'7 1.3
2014-Apr-12 12:18N 11°59' W 017°31'2613.9
2014-Apr-12 10:25N 11°35' W 017°21'1415.8
2014-Apr-12 09:34N 11°22' W 017°15'1916.1
2014-Apr-12 08:22N 11°05' W 017°08'1416.5
2014-Apr-12 07:32N 10°52' W 017°03'1717.4
2014-Apr-12 06:34N 10°37' W 016°54'1716.0
2014-Apr-12 05:31N 10°23' W 016°45'1616.1
2014-Apr-12 04:32N 10°11' W 016°35'2216.1
2014-Apr-12 03:10N 09°53' W 016°22'1016.2
2014-Apr-12 02:33N 09°44' W 016°17'1616.2
2014-Apr-12 01:34N 09°31' W 016°07'1616.5
2014-Apr-12 00:34N 09°18' W 015°58'1616.4
2014-Apr-11 23:34N 09°04' W 015°48'1616.1
2014-Apr-11 22:33N 08°54' W 015°35'1716.5
2014-Apr-11 21:33N 08°45' W 015°22'1616.5
2014-Apr-11 20:34N 08°35' W 015°09'1716.5
2014-Apr-11 19:33N 08°26' W 014°55'8 7.1
2014-Apr-11 18:29N 08°22' W 014°48'0 0.5
2014-Apr-11 17:32N 08°22' W 014°48'0 0.3
2014-Apr-11 16:32N 08°22' W 014°49'0 0.2
2014-Apr-11 15:32N 08°22' W 014°49'0 0.3
2014-Apr-11 14:32N 08°22' W 014°49'0 0.4
2014-Apr-11 13:32N 08°22' W 014°49'0 0.2
2014-Apr-11 12:29N 08°22' W 014°49'0 0.2
2014-Apr-11 11:32N 08°21' W 014°49'7 7.1
2014-Apr-11 10:34N 08°17' W 014°44'1716.8
2014-Apr-11 09:34N 08°07' W 014°31'  

Dump ship's entire track history

sailing weather and tide predictions

MSC Suez — HPMS — position and weather